Time;durP1;ratioP1;P1;durP2;ratioP2;P2;SDS_P1;SDS_P2;PMS_P1;PMS_P2;Temp;Humidity;BMP_temperature;BMP_pressure;BME280_temperature;BME280_humidity;BME280_pressure;Samples;Min_cycle;Max_cycle;Signal;HPM_P1;HPM_P2
2024/03/30 00:01:00;;;;;;;;;;;11.40;1.00;;;;;;5004869;28;19920;-82
2024/03/30 00:03:26;;;;;;;;;;;11.50;1.00;;;;;;5034077;28;19913;-81
2024/03/30 00:05:58;;;;;;;;;;;11.50;1.00;;;;;;5028834;28;20486;-82
2024/03/30 00:08:23;;;;;;;;;;;11.40;1.00;;;;;;5023335;28;20283;-81
2024/03/30 00:10:56;;;;;;;;;;;11.40;1.00;;;;;;5020195;28;19924;-82
2024/03/30 00:13:21;;;;;;;;;;;11.40;1.00;;;;;;5021309;28;20132;-82
2024/03/30 00:15:47;;;;;;;;;;;11.30;1.00;;;;;;5026842;28;20372;-83
2024/03/30 00:18:12;;;;;;;;;;;11.20;1.00;;;;;;5024216;28;19920;-82
2024/03/30 00:20:38;;;;;;;;;;;11.20;1.00;;;;;;5026074;28;19936;-81
2024/03/30 00:23:04;;;;;;;;;;;11.10;1.00;;;;;;5028756;28;19921;-81
2024/03/30 00:25:29;;;;;;;;;;;11.10;1.00;;;;;;5025852;28;20003;-82
2024/03/30 00:27:55;;;;;;;;;;;11.00;1.00;;;;;;5027112;28;19986;-81
2024/03/30 00:30:20;;;;;;;;;;;11.00;1.00;;;;;;5023425;28;19922;-82
2024/03/30 00:32:49;;;;;;;;;;;11.00;1.00;;;;;;5019160;28;19930;-82
2024/03/30 00:35:14;;;;;;;;;;;11.00;1.00;;;;;;5024446;28;19917;-82
2024/03/30 00:37:40;;;;;;;;;;;11.00;1.00;;;;;;5025772;28;20423;-82
2024/03/30 00:40:06;;;;;;;;;;;11.00;1.00;;;;;;5033167;28;19956;-84
2024/03/30 00:42:32;;;;;;;;;;;11.00;1.00;;;;;;5034309;28;20371;-83
2024/03/30 00:44:57;;;;;;;;;;;11.00;1.00;;;;;;5036422;28;19925;-84
2024/03/30 00:47:23;;;;;;;;;;;11.00;1.00;;;;;;5017097;28;23030;-82
2024/03/30 00:49:48;;;;;;;;;;;11.10;1.00;;;;;;5026420;28;19924;-84
2024/03/30 00:52:14;;;;;;;;;;;11.10;1.00;;;;;;5029597;28;20251;-83
2024/03/30 00:54:39;;;;;;;;;;;11.10;1.00;;;;;;5014255;28;19918;-83
2024/03/30 00:57:05;;;;;;;;;;;11.20;1.00;;;;;;5026152;28;19944;-83
2024/03/30 00:59:30;;;;;;;;;;;11.20;1.00;;;;;;5033186;28;19932;-83
2024/03/30 01:01:56;;;;;;;;;;;11.20;1.00;;;;;;5017796;28;19917;-84
2024/03/30 01:04:21;;;;;;;;;;;11.20;1.00;;;;;;5036268;28;20000;-83
2024/03/30 01:06:47;;;;;;;;;;;11.20;1.00;;;;;;5025919;28;20406;-83
2024/03/30 01:09:12;;;;;;;;;;;11.10;1.00;;;;;;5011905;28;19984;-81
2024/03/30 01:11:38;;;;;;;;;;;11.10;1.00;;;;;;5055798;22;19917;-80
2024/03/30 01:14:04;;;;;;;;;;;11.10;1.00;;;;;;5062692;28;19920;-83
2024/03/30 01:16:29;;;;;;;;;;;11.00;1.00;;;;;;5054775;28;19923;-81
2024/03/30 01:18:55;;;;;;;;;;;11.00;1.00;;;;;;5053606;28;19958;-81
2024/03/30 01:21:21;;;;;;;;;;;11.00;1.00;;;;;;5053589;28;19959;-83
2024/03/30 01:23:46;;;;;;;;;;;11.00;1.00;;;;;;5064816;28;19917;-81
2024/03/30 01:26:12;;;;;;;;;;;10.90;1.00;;;;;;5058858;28;19913;-82
2024/03/30 01:28:40;;;;;;;;;;;10.90;1.00;;;;;;5055133;28;19946;-81
2024/03/30 01:31:05;;;;;;;;;;;10.90;1.00;;;;;;5058410;28;19919;-80
2024/03/30 01:33:31;;;;;;;;;;;10.80;1.00;;;;;;5052086;28;19917;-81
2024/03/30 01:35:56;;;;;;;;;;;10.80;1.00;;;;;;5061059;28;19958;-80
2024/03/30 01:38:22;;;;;;;;;;;10.70;1.00;;;;;;5058163;28;19924;-81
2024/03/30 01:40:49;;;;;;;;;;;10.70;1.00;;;;;;5060980;28;19917;-80
2024/03/30 01:43:14;;;;;;;;;;;10.70;1.00;;;;;;5054374;28;19963;-81
2024/03/30 01:45:41;;;;;;;;;;;10.60;1.70;;;;;;5053533;28;19952;-81
2024/03/30 01:48:07;;;;;;;;;;;10.60;3.80;;;;;;5049948;28;19936;-80
2024/03/30 01:50:33;;;;;;;;;;;10.50;7.00;;;;;;5056565;28;20329;-82
2024/03/30 01:53:00;;;;;;;;;;;10.50;10.90;;;;;;5055263;28;19931;-81
2024/03/30 01:55:26;;;;;;;;;;;10.40;14.00;;;;;;5056724;28;19913;-81
2024/03/30 01:57:52;;;;;;;;;;;10.40;16.40;;;;;;5061072;28;20006;-82
2024/03/30 02:00:18;;;;;;;;;;;10.40;19.70;;;;;;5053062;28;19916;-82
2024/03/30 02:02:44;;;;;;;;;;;10.30;23.00;;;;;;5049947;28;19921;-82
2024/03/30 02:05:10;;;;;;;;;;;10.30;25.40;;;;;;5065877;28;19917;-79
2024/03/30 02:07:35;;;;;;;;;;;10.30;27.00;;;;;;5055145;28;19913;-81
2024/03/30 02:10:02;;;;;;;;;;;10.30;29.30;;;;;;5053885;28;20420;-81
2024/03/30 02:12:28;;;;;;;;;;;10.20;29.40;;;;;;5055257;28;19924;-81
2024/03/30 02:14:53;;;;;;;;;;;10.20;28.70;;;;;;5060194;28;19916;-81
2024/03/30 02:17:19;;;;;;;;;;;10.20;29.10;;;;;;5052295;28;20359;-81
2024/03/30 02:19:45;;;;;;;;;;;10.30;27.70;;;;;;5057488;28;19912;-79
2024/03/30 02:22:11;;;;;;;;;;;10.30;26.50;;;;;;5057170;28;19920;-79
2024/03/30 02:24:36;;;;;;;;;;;10.30;22.50;;;;;;5056948;28;19958;-84
2024/03/30 02:27:02;;;;;;;;;;;10.30;18.30;;;;;;5057491;28;19924;-81
2024/03/30 02:29:30;;;;;;;;;;;10.20;19.30;;;;;;5075197;28;19919;-81
2024/03/30 02:31:56;;;;;;;;;;;10.30;14.50;;;;;;5054943;28;19913;-81
2024/03/30 02:34:21;;;;;;;;;;;10.30;13.30;;;;;;5053976;28;19924;-83
2024/03/30 02:36:47;;;;;;;;;;;10.30;25.70;;;;;;5057600;28;19966;-81
2024/03/30 02:39:12;;;;;;;;;;;10.20;37.50;;;;;;5060141;28;19999;-82
2024/03/30 02:41:38;;;;;;;;;;;10.20;46.70;;;;;;5055858;28;19920;-80
2024/03/30 02:44:03;;;;;;;;;;;10.20;53.10;;;;;;5060759;28;19985;-83
2024/03/30 02:46:29;;;;;;;;;;;10.20;60.70;;;;;;5058291;28;19909;-80
2024/03/30 02:48:54;;;;;;;;;;;10.10;65.30;;;;;;5059077;28;19954;-81
2024/03/30 02:51:20;;;;;;;;;;;10.10;73.20;;;;;;5054658;28;20371;-81
2024/03/30 02:53:45;;;;;;;;;;;10.10;78.90;;;;;;5050934;28;20306;-81
2024/03/30 02:56:11;;;;;;;;;;;10.10;83.10;;;;;;5057091;28;19920;-80
2024/03/30 02:58:36;;;;;;;;;;;10.10;88.30;;;;;;5055260;28;20388;-81
2024/03/30 03:01:02;;;;;;;;;;;10.10;88.70;;;;;;5052942;28;19920;-80
2024/03/30 03:03:27;;;;;;;;;;;10.10;90.10;;;;;;5059526;28;19917;-82
2024/03/30 03:05:56;;;;;;;;;;;10.10;90.30;;;;;;5062569;28;19917;-83
2024/03/30 03:08:24;;;;;;;;;;;10.10;90.00;;;;;;5064087;28;20374;-82
2024/03/30 03:10:50;;;;;;;;;;;10.10;90.10;;;;;;5060095;28;19935;-81
2024/03/30 03:13:17;;;;;;;;;;;10.10;88.40;;;;;;5062870;28;19925;-82
2024/03/30 03:15:42;;;;;;;;;;;10.10;89.80;;;;;;5065830;28;19999;-82
2024/03/30 03:18:08;;;;;;;;;;;10.10;92.70;;;;;;5064470;28;19960;-81
2024/03/30 03:20:33;;;;;;;;;;;10.10;94.40;;;;;;5064491;28;19925;-81
2024/03/30 03:22:59;;;;;;;;;;;10.10;97.00;;;;;;5056906;28;19923;-82
2024/03/30 03:25:24;;;;;;;;;;;10.10;99.90;;;;;;5054547;28;19940;-82
2024/03/30 03:27:50;;;;;;;;;;;10.20;99.90;;;;;;5059383;28;19935;-82
2024/03/30 03:30:15;;;;;;;;;;;10.10;99.90;;;;;;5058331;28;19966;-81
2024/03/30 03:32:41;;;;;;;;;;;10.20;99.90;;;;;;5061284;28;19978;-82
2024/03/30 03:35:06;;;;;;;;;;;10.10;99.90;;;;;;5064116;28;19942;-83
2024/03/30 03:37:31;;;;;;;;;;;10.10;99.90;;;;;;5059472;28;19965;-80
2024/03/30 03:39:57;;;;;;;;;;;10.20;99.90;;;;;;5059683;28;19912;-81
2024/03/30 03:42:22;;;;;;;;;;;10.20;99.90;;;;;;5061160;28;20398;-83
2024/03/30 03:44:48;;;;;;;;;;;10.20;99.90;;;;;;5061669;28;19927;-82
2024/03/30 03:47:13;;;;;;;;;;;10.10;99.90;;;;;;5063302;28;19916;-81
2024/03/30 03:49:39;;;;;;;;;;;10.20;99.90;;;;;;5061954;28;19920;-80
2024/03/30 03:52:04;;;;;;;;;;;10.10;99.90;;;;;;5056553;28;19924;-81
2024/03/30 03:54:30;;;;;;;;;;;10.20;99.90;;;;;;5054545;28;19913;-80
2024/03/30 03:56:55;;;;;;;;;;;10.20;99.90;;;;;;5058034;28;19912;-80
2024/03/30 03:59:21;;;;;;;;;;;10.20;99.90;;;;;;5059203;28;20404;-82
2024/03/30 04:01:46;;;;;;;;;;;10.20;99.90;;;;;;5057121;28;19942;-81
2024/03/30 04:04:12;;;;;;;;;;;10.20;99.90;;;;;;5060156;28;19920;-81
2024/03/30 04:06:37;;;;;;;;;;;10.20;99.90;;;;;;5051946;28;20390;-80
2024/03/30 04:09:03;;;;;;;;;;;10.20;99.90;;;;;;5055124;28;19920;-81
2024/03/30 04:11:29;;;;;;;;;;;10.20;99.90;;;;;;5055409;28;19921;-81
2024/03/30 04:13:54;;;;;;;;;;;10.20;99.90;;;;;;5054153;28;19924;-80
2024/03/30 04:16:21;;;;;;;;;;;10.20;99.90;;;;;;5055822;28;20377;-82
2024/03/30 04:18:46;;;;;;;;;;;10.20;99.90;;;;;;5055658;28;20123;-82
2024/03/30 04:21:13;;;;;;;;;;;10.20;99.90;;;;;;5054987;28;19938;-81
2024/03/30 04:23:38;;;;;;;;;;;10.20;99.90;;;;;;5056188;28;19916;-82
2024/03/30 04:26:08;;;;;;;;;;;10.10;99.90;;;;;;5058375;28;19986;-81
2024/03/30 04:28:34;;;;;;;;;;;10.20;99.90;;;;;;5056805;28;20401;-81
2024/03/30 04:31:00;;;;;;;;;;;10.20;99.90;;;;;;5065419;28;19970;-81
2024/03/30 04:33:26;;;;;;;;;;;10.20;99.90;;;;;;5061643;28;19920;-81
2024/03/30 04:35:55;;;;;;;;;;;10.20;99.90;;;;;;5059086;28;19956;-82
2024/03/30 04:38:20;;;;;;;;;;;10.20;99.90;;;;;;5058652;28;19913;-81
2024/03/30 04:40:54;;;;;;;;;;;10.30;99.90;;;;;;5056195;28;20468;-81
2024/03/30 04:43:20;;;;;;;;;;;10.30;99.90;;;;;;5056852;28;19917;-81
2024/03/30 04:45:46;;;;;;;;;;;10.20;99.90;;;;;;5071332;28;19918;-81
2024/03/30 04:48:11;;;;;;;;;;;10.20;99.90;;;;;;5055497;28;19917;-81
2024/03/30 04:50:37;;;;;;;;;;;10.20;99.90;;;;;;5058840;28;19912;-80
2024/03/30 04:53:02;;;;;;;;;;;10.10;99.90;;;;;;5054241;28;20481;-82
2024/03/30 04:55:28;;;;;;;;;;;10.10;99.90;;;;;;5057130;28;20019;-82
2024/03/30 04:57:53;;;;;;;;;;;10.10;99.90;;;;;;5060806;28;19951;-81
2024/03/30 05:00:19;;;;;;;;;;;10.10;99.90;;;;;;5057077;28;19966;-81
2024/03/30 05:02:44;;;;;;;;;;;10.10;99.90;;;;;;5055690;28;19920;-82
2024/03/30 05:05:10;;;;;;;;;;;10.10;99.90;;;;;;5056300;28;20363;-81
2024/03/30 05:07:35;;;;;;;;;;;10.20;99.90;;;;;;5051880;28;19920;-82
2024/03/30 05:10:01;;;;;;;;;;;10.10;99.90;;;;;;5060862;28;19942;-82
2024/03/30 05:12:26;;;;;;;;;;;10.10;99.90;;;;;;5056485;28;19921;-80
2024/03/30 05:14:51;;;;;;;;;;;10.20;99.90;;;;;;5057552;28;20007;-81
2024/03/30 05:17:17;;;;;;;;;;;10.20;99.90;;;;;;5054456;28;19920;-82
2024/03/30 05:22:26;;;;;;;;;;;10.20;99.90;;;;;;5056777;28;19935;-80
2024/03/30 05:24:52;;;;;;;;;;;10.30;99.50;;;;;;5058921;28;19913;-81
2024/03/30 05:27:17;;;;;;;;;;;10.30;98.60;;;;;;5054370;28;19913;-81
2024/03/30 05:29:43;;;;;;;;;;;10.30;97.60;;;;;;5056411;28;19924;-81
2024/03/30 05:32:08;;;;;;;;;;;10.30;95.90;;;;;;5056520;28;19920;-82
2024/03/30 05:34:34;;;;;;;;;;;10.40;95.30;;;;;;5055648;28;20306;-80
2024/03/30 05:36:59;;;;;;;;;;;10.40;94.50;;;;;;5060144;28;19913;-79
2024/03/30 05:39:25;;;;;;;;;;;10.50;92.10;;;;;;5067906;28;19919;-81
2024/03/30 05:41:50;;;;;;;;;;;10.50;87.80;;;;;;5063691;28;19930;-82
2024/03/30 05:44:15;;;;;;;;;;;10.50;81.30;;;;;;5061520;28;19920;-82
2024/03/30 05:46:41;;;;;;;;;;;10.50;77.10;;;;;;5065326;28;19935;-82
2024/03/30 05:49:06;;;;;;;;;;;10.50;72.00;;;;;;5061078;28;22969;-82
2024/03/30 05:51:32;;;;;;;;;;;10.50;68.70;;;;;;5055553;28;19917;-80
2024/03/30 05:53:58;;;;;;;;;;;10.50;65.30;;;;;;5059205;28;19925;-82
2024/03/30 05:56:23;;;;;;;;;;;10.50;63.00;;;;;;5057206;28;20401;-82
2024/03/30 05:58:50;;;;;;;;;;;10.60;60.40;;;;;;5059468;28;20386;-82
2024/03/30 06:01:15;;;;;;;;;;;10.60;59.20;;;;;;5061191;28;19913;-82
2024/03/30 06:03:41;;;;;;;;;;;10.60;58.40;;;;;;5054220;28;19920;-81
2024/03/30 06:06:06;;;;;;;;;;;10.70;57.70;;;;;;5057169;28;20420;-82
2024/03/30 06:08:32;;;;;;;;;;;10.70;51.40;;;;;;5051090;28;23635;-84
2024/03/30 06:10:57;;;;;;;;;;;10.80;49.10;;;;;;5051510;28;19913;-80
2024/03/30 06:13:23;;;;;;;;;;;10.80;41.60;;;;;;5069275;28;19943;-81
2024/03/30 06:15:48;;;;;;;;;;;10.90;37.40;;;;;;5067323;28;19942;-82
2024/03/30 06:18:14;;;;;;;;;;;10.90;33.00;;;;;;5069394;28;19913;-84
2024/03/30 06:20:39;;;;;;;;;;;11.00;31.00;;;;;;5068135;28;19944;-82
2024/03/30 06:23:05;;;;;;;;;;;11.00;29.10;;;;;;5067772;28;19924;-82
2024/03/30 06:25:30;;;;;;;;;;;11.10;24.00;;;;;;5069391;28;19913;-82
2024/03/30 06:27:55;;;;;;;;;;;11.10;18.90;;;;;;5063345;28;20495;-83
2024/03/30 06:30:21;;;;;;;;;;;11.20;14.30;;;;;;5067477;28;19956;-84
2024/03/30 06:32:46;;;;;;;;;;;11.20;6.60;;;;;;5056872;28;20382;-83
2024/03/30 06:35:12;;;;;;;;;;;11.30;4.80;;;;;;5053921;28;19924;-84
2024/03/30 06:37:37;;;;;;;;;;;11.30;1.00;;;;;;5065032;28;19939;-83
2024/03/30 06:45:31;;;;;;;;;;;11.20;1.00;;;;;;5068831;28;20001;-83
2024/03/30 06:47:57;;;;;;;;;;;11.20;7.40;;;;;;5063475;28;20666;-82
2024/03/30 06:50:22;;;;;;;;;;;11.20;11.10;;;;;;5066769;28;19913;-81
2024/03/30 06:52:48;;;;;;;;;;;11.20;14.50;;;;;;5063416;28;19947;-82
2024/03/30 06:55:15;;;;;;;;;;;11.10;16.00;;;;;;5067843;28;19942;-82
2024/03/30 06:57:40;;;;;;;;;;;11.10;17.20;;;;;;5064103;28;19940;-80
2024/03/30 07:00:06;;;;;;;;;;;11.10;18.80;;;;;;5065250;28;19993;-81
2024/03/30 07:02:32;;;;;;;;;;;11.10;25.40;;;;;;5062091;28;19920;-83
2024/03/30 07:04:58;;;;;;;;;;;11.20;23.60;;;;;;5062393;28;19913;-82
2024/03/30 07:07:23;;;;;;;;;;;11.20;21.60;;;;;;5063980;28;19916;-82
2024/03/30 07:09:49;;;;;;;;;;;11.30;18.10;;;;;;5057617;28;19917;-80
2024/03/30 07:12:14;;;;;;;;;;;11.40;17.10;;;;;;5061197;28;19928;-82
2024/03/30 07:14:40;;;;;;;;;;;11.50;15.20;;;;;;5105224;22;20367;-83
2024/03/30 07:17:05;;;;;;;;;;;11.60;6.70;;;;;;5083343;28;19920;-82
2024/03/30 07:19:31;;;;;;;;;;;11.70;1.00;;;;;;5047627;28;19951;-81
2024/03/30 07:21:56;;;;;;;;;;;11.70;1.00;;;;;;5052688;28;19919;-83
2024/03/30 07:24:22;;;;;;;;;;;11.70;1.00;;;;;;5056391;28;20280;-84
2024/03/30 07:26:47;;;;;;;;;;;11.80;1.00;;;;;;5058586;28;20198;-84
2024/03/30 07:29:13;;;;;;;;;;;11.80;1.00;;;;;;5052078;28;19927;-84
2024/03/30 07:31:38;;;;;;;;;;;11.80;1.00;;;;;;5049992;28;20357;-84
2024/03/30 07:34:04;;;;;;;;;;;11.80;1.00;;;;;;5048265;28;20014;-84
2024/03/30 07:36:29;;;;;;;;;;;11.80;1.00;;;;;;5052254;28;19913;-82
2024/03/30 07:38:55;;;;;;;;;;;11.80;1.00;;;;;;5044256;28;19970;-83
2024/03/30 07:41:20;;;;;;;;;;;11.80;1.00;;;;;;5051716;28;19996;-83
2024/03/30 07:43:46;;;;;;;;;;;11.90;1.00;;;;;;5047466;28;19913;-83
2024/03/30 07:46:11;;;;;;;;;;;12.00;1.00;;;;;;5051887;28;19928;-83
2024/03/30 07:48:37;;;;;;;;;;;12.00;1.00;;;;;;5044461;28;20303;-83
2024/03/30 07:51:02;;;;;;;;;;;12.10;1.00;;;;;;5045962;28;19913;-83
2024/03/30 07:53:28;;;;;;;;;;;12.20;1.00;;;;;;5044923;28;19954;-83
2024/03/30 07:55:54;;;;;;;;;;;12.30;1.00;;;;;;5047618;28;19979;-81
2024/03/30 07:58:19;;;;;;;;;;;12.80;1.00;;;;;;5051906;28;19936;-81
2024/03/30 08:00:45;;;;;;;;;;;13.40;1.00;;;;;;5049455;28;19917;-82
2024/03/30 08:03:10;;;;;;;;;;;13.80;99.90;;;;;;5051827;28;19959;-81
2024/03/30 08:05:38;;;;;;;;;;;14.30;99.90;;;;;;5058710;28;19913;-82
2024/03/30 08:08:04;;;;;;;;;;;14.90;99.90;;;;;;5046290;28;19928;-82
2024/03/30 08:10:29;;;;;;;;;;;16.30;99.90;;;;;;5048151;28;19912;-84
2024/03/30 08:12:54;;;;;;;;;;;17.70;99.90;;;;;;5054564;28;19923;-82
2024/03/30 08:15:20;;;;;;;;;;;19.10;99.90;;;;;;5054423;28;20426;-84
2024/03/30 08:17:45;;;;;;;;;;;18.90;1.00;;;;;;5058779;28;19917;-83
2024/03/30 08:20:11;;;;;;;;;;;18.50;1.00;;;;;;5054282;28;19919;-83
2024/03/30 08:22:37;;;;;;;;;;;18.50;1.00;;;;;;5043625;28;19928;-82
2024/03/30 08:25:03;;;;;;;;;;;18.30;1.00;;;;;;5052029;28;19912;-83
2024/03/30 08:27:28;;;;;;;;;;;18.10;1.00;;;;;;5049968;28;19924;-84
2024/03/30 08:29:54;;;;;;;;;;;18.80;1.00;;;;;;5054632;28;19920;-83
2024/03/30 08:32:19;;;;;;;;;;;20.20;1.00;;;;;;5053490;28;19916;-82
2024/03/30 08:34:44;;;;;;;;;;;21.50;1.00;;;;;;5048653;28;19913;-84
2024/03/30 08:37:10;;;;;;;;;;;22.20;99.90;;;;;;5053760;28;19913;-83
2024/03/30 08:39:35;;;;;;;;;;;22.00;99.90;;;;;;5051898;28;19971;-82
2024/03/30 08:42:01;;;;;;;;;;;22.10;99.90;;;;;;5054807;28;19935;-83
2024/03/30 08:44:26;;;;;;;;;;;22.20;99.90;;;;;;5055560;28;22372;-81
2024/03/30 08:46:52;;;;;;;;;;;22.00;99.90;;;;;;5049786;28;19917;-83
2024/03/30 08:49:17;;;;;;;;;;;21.50;99.90;;;;;;5053574;28;19965;-84
2024/03/30 08:51:43;;;;;;;;;;;20.90;99.90;;;;;;5051724;28;19928;-84
2024/03/30 08:54:09;;;;;;;;;;;20.60;99.90;;;;;;5051135;28;20564;-82
2024/03/30 08:56:35;;;;;;;;;;;20.40;99.90;;;;;;5048887;28;19995;-84
2024/03/30 08:59:00;;;;;;;;;;;20.30;99.90;;;;;;5050016;28;20473;-83
2024/03/30 09:01:27;;;;;;;;;;;19.70;99.90;;;;;;5049331;28;19972;-83
2024/03/30 09:03:52;;;;;;;;;;;18.90;99.90;;;;;;5037412;28;19971;-83
2024/03/30 09:06:18;;;;;;;;;;;18.20;1.00;;;;;;5042576;28;19921;-82
2024/03/30 09:08:44;;;;;;;;;;;17.80;1.00;;;;;;5049199;28;19924;-82
2024/03/30 09:11:10;;;;;;;;;;;17.70;1.00;;;;;;5043617;28;20294;-82
2024/03/30 09:13:35;;;;;;;;;;;17.50;1.00;;;;;;5044809;28;19917;-82
2024/03/30 09:16:01;;;;;;;;;;;17.40;1.00;;;;;;5044941;28;19958;-82
2024/03/30 09:18:27;;;;;;;;;;;17.30;1.00;;;;;;5049403;28;20004;-82
2024/03/30 09:20:52;;;;;;;;;;;17.90;1.00;;;;;;5048298;28;20349;-82
2024/03/30 09:23:18;;;;;;;;;;;18.30;1.00;;;;;;5050774;28;19917;-80
2024/03/30 09:25:43;;;;;;;;;;;18.30;1.00;;;;;;5047987;28;19913;-83
2024/03/30 09:28:09;;;;;;;;;;;18.10;1.00;;;;;;5047249;28;19913;-82
2024/03/30 09:30:34;;;;;;;;;;;17.80;1.00;;;;;;5056095;28;19913;-83
2024/03/30 09:33:00;;;;;;;;;;;17.70;1.00;;;;;;5056694;28;19917;-83
2024/03/30 09:35:26;;;;;;;;;;;17.60;1.00;;;;;;5051676;28;20371;-84
2024/03/30 09:37:51;;;;;;;;;;;17.50;1.00;;;;;;5050234;28;19928;-82
2024/03/30 09:40:16;;;;;;;;;;;17.60;1.00;;;;;;5043399;28;19913;-83
2024/03/30 09:42:43;;;;;;;;;;;17.90;1.00;;;;;;5047469;28;20438;-85
2024/03/30 09:45:09;;;;;;;;;;;18.30;1.00;;;;;;5052313;28;19913;-84
2024/03/30 09:47:36;;;;;;;;;;;18.80;1.00;;;;;;5050279;28;20159;-84
2024/03/30 09:50:02;;;;;;;;;;;19.40;1.00;;;;;;5054328;28;19924;-85
2024/03/30 09:52:29;;;;;;;;;;;19.90;99.90;;;;;;5045842;28;19948;-85
2024/03/30 09:55:00;;;;;;;;;;;20.40;99.90;;;;;;5051373;28;20010;-84
2024/03/30 09:57:26;;;;;;;;;;;20.50;99.90;;;;;;5056829;28;19913;-84
2024/03/30 09:59:52;;;;;;;;;;;20.30;99.90;;;;;;5051046;28;19987;-84
2024/03/30 10:02:18;;;;;;;;;;;19.90;99.90;;;;;;5061929;28;19916;-83
2024/03/30 10:04:44;;;;;;;;;;;19.60;99.90;;;;;;5055399;28;19919;-83
2024/03/30 10:07:12;;;;;;;;;;;19.30;99.90;;;;;;5063109;28;19913;-83
2024/03/30 10:09:37;;;;;;;;;;;19.10;99.90;;;;;;5061161;28;20450;-84
2024/03/30 10:12:07;;;;;;;;;;;18.80;99.90;;;;;;5054077;28;19952;-83
2024/03/30 10:14:33;;;;;;;;;;;18.70;99.90;;;;;;5061546;28;20382;-83
2024/03/30 10:17:00;;;;;;;;;;;18.60;99.90;;;;;;5060992;28;20395;-84
2024/03/30 10:19:26;;;;;;;;;;;18.50;99.90;;;;;;5055587;28;19909;-84
2024/03/30 10:21:52;;;;;;;;;;;18.50;99.90;;;;;;5043625;28;19966;-85
2024/03/30 10:24:18;;;;;;;;;;;18.40;99.90;;;;;;5061620;28;19913;-84
2024/03/30 10:26:44;;;;;;;;;;;18.30;99.90;;;;;;5060898;28;19999;-86
2024/03/30 10:29:09;;;;;;;;;;;18.30;99.90;;;;;;5061954;28;19913;-83
2024/03/30 10:31:39;;;;;;;;;;;18.20;99.90;;;;;;5050892;28;19944;-83
2024/03/30 10:34:04;;;;;;;;;;;18.20;99.90;;;;;;5049724;28;20271;-82
2024/03/30 10:36:30;;;;;;;;;;;18.20;99.90;;;;;;5055804;28;19966;-82
2024/03/30 10:38:56;;;;;;;;;;;18.10;99.90;;;;;;5032467;28;19932;-84
2024/03/30 10:41:25;;;;;;;;;;;18.00;99.90;;;;;;5056707;28;20358;-83
2024/03/30 10:43:50;;;;;;;;;;;18.00;99.90;;;;;;5062023;28;19917;-83
2024/03/30 10:46:16;;;;;;;;;;;17.80;99.90;;;;;;5060548;28;19979;-83
2024/03/30 10:48:41;;;;;;;;;;;17.70;99.90;;;;;;5061987;28;19958;-82
2024/03/30 10:51:07;;;;;;;;;;;17.60;99.90;;;;;;5059044;28;19913;-84
2024/03/30 10:53:32;;;;;;;;;;;17.60;99.90;;;;;;5059855;28;19979;-83
2024/03/30 10:55:58;;;;;;;;;;;17.50;99.90;;;;;;5053077;28;19920;-84
2024/03/30 10:58:24;;;;;;;;;;;17.50;99.90;;;;;;5063337;28;19956;-84
2024/03/30 11:00:51;;;;;;;;;;;17.50;99.90;;;;;;5062630;28;19915;-85
2024/03/30 11:03:17;;;;;;;;;;;17.50;99.90;;;;;;5062182;28;19976;-82
2024/03/30 11:05:43;;;;;;;;;;;17.50;99.90;;;;;;5061209;28;19962;-82
2024/03/30 11:08:09;;;;;;;;;;;17.60;99.90;;;;;;5065312;28;19920;-84
2024/03/30 11:10:35;;;;;;;;;;;17.50;99.90;;;;;;5065304;28;19921;-83
2024/03/30 11:13:01;;;;;;;;;;;17.50;99.90;;;;;;5062715;28;19956;-84
2024/03/30 11:15:28;;;;;;;;;;;17.40;99.90;;;;;;5062446;28;19912;-83
2024/03/30 11:17:54;;;;;;;;;;;17.50;99.90;;;;;;5043466;28;19913;-83
2024/03/30 11:20:26;;;;;;;;;;;17.50;99.90;;;;;;5048339;28;19909;-84
2024/03/30 11:23:07;;;;;;;;;;;17.50;99.90;;;;;;5047401;28;19913;-83
2024/03/30 11:25:34;;;;;;;;;;;17.60;99.90;;;;;;5049101;28;19913;-82
2024/03/30 11:27:59;;;;;;;;;;;17.60;99.90;;;;;;5052160;28;19909;-83
2024/03/30 11:30:33;;;;;;;;;;;17.60;99.90;;;;;;5051455;28;19920;-83
2024/03/30 11:33:14;;;;;;;;;;;17.60;99.90;;;;;;5047042;28;20000;-85
2024/03/30 11:35:44;;;;;;;;;;;17.70;99.90;;;;;;5048027;28;20020;-85
2024/03/30 11:38:09;;;;;;;;;;;17.80;99.90;;;;;;5046640;28;19917;-84
2024/03/30 11:40:37;;;;;;;;;;;17.90;99.90;;;;;;5051549;28;20104;-82
2024/03/30 11:43:10;;;;;;;;;;;18.10;99.90;;;;;;5064477;28;19968;-83
2024/03/30 11:45:38;;;;;;;;;;;18.30;99.90;;;;;;5053850;28;19913;-80
2024/03/30 11:48:04;;;;;;;;;;;18.40;99.90;;;;;;5051253;28;19913;-81
2024/03/30 11:50:31;;;;;;;;;;;18.50;99.90;;;;;;5056726;28;19920;-82
2024/03/30 11:52:56;;;;;;;;;;;18.70;99.90;;;;;;5057099;28;19939;-83
2024/03/30 11:55:22;;;;;;;;;;;18.80;99.90;;;;;;5055502;28;19913;-82
2024/03/30 11:57:52;;;;;;;;;;;18.90;99.90;;;;;;5056641;28;19921;-82
2024/03/30 12:00:19;;;;;;;;;;;18.90;99.90;;;;;;5054727;28;19912;-82
2024/03/30 12:02:45;;;;;;;;;;;19.00;99.90;;;;;;5050590;28;19912;-82
2024/03/30 12:05:11;;;;;;;;;;;19.10;99.90;;;;;;5048126;28;19913;-82
2024/03/30 12:07:38;;;;;;;;;;;19.10;99.90;;;;;;5053213;28;23510;-83
2024/03/30 12:10:04;;;;;;;;;;;19.10;99.90;;;;;;5059979;28;19923;-83
2024/03/30 12:12:30;;;;;;;;;;;19.10;99.90;;;;;;5050265;28;21501;-82
2024/03/30 12:14:58;;;;;;;;;;;19.20;99.90;;;;;;5053287;28;19924;-82
2024/03/30 12:17:23;;;;;;;;;;;19.30;99.90;;;;;;5051240;28;19963;-83
2024/03/30 12:19:50;;;;;;;;;;;19.30;99.90;;;;;;5048511;28;19926;-81
2024/03/30 12:22:19;;;;;;;;;;;19.30;99.90;;;;;;5051772;28;19924;-82
2024/03/30 12:24:44;;;;;;;;;;;19.30;99.90;;;;;;5049169;28;19913;-82
2024/03/30 12:27:10;;;;;;;;;;;19.00;99.90;;;;;;5058654;28;20398;-83
2024/03/30 12:29:37;;;;;;;;;;;18.90;99.90;;;;;;5050879;28;19948;-82
2024/03/30 12:32:02;;;;;;;;;;;18.70;99.90;;;;;;5051441;28;19913;-82
2024/03/30 12:34:28;;;;;;;;;;;18.70;99.90;;;;;;5052362;28;19927;-81
2024/03/30 12:36:54;;;;;;;;;;;18.80;99.90;;;;;;5055190;28;19912;-81
2024/03/30 12:39:20;;;;;;;;;;;19.10;99.90;;;;;;5048648;28;19917;-81
2024/03/30 12:41:47;;;;;;;;;;;19.50;99.90;;;;;;5053907;28;19940;-80
2024/03/30 12:44:12;;;;;;;;;;;19.80;99.90;;;;;;5044309;28;19918;-81
2024/03/30 12:46:38;;;;;;;;;;;19.90;99.90;;;;;;5050782;28;19917;-81
2024/03/30 12:49:04;;;;;;;;;;;19.90;99.90;;;;;;5055156;28;19928;-82
2024/03/30 12:51:29;;;;;;;;;;;19.90;99.90;;;;;;5054213;28;19943;-82
2024/03/30 12:53:55;;;;;;;;;;;19.90;99.90;;;;;;5052220;28;19916;-82
2024/03/30 12:56:24;;;;;;;;;;;20.10;99.90;;;;;;5059707;28;19995;-82
2024/03/30 12:58:50;;;;;;;;;;;20.20;99.90;;;;;;5048361;28;19913;-82
2024/03/30 13:01:17;;;;;;;;;;;20.30;99.90;;;;;;5050616;28;19917;-80
2024/03/30 13:03:42;;;;;;;;;;;20.40;99.90;;;;;;5050268;28;19920;-82
2024/03/30 13:06:08;;;;;;;;;;;20.30;99.90;;;;;;5049803;28;20305;-83
2024/03/30 13:08:40;;;;;;;;;;;20.20;99.90;;;;;;5046019;28;19919;-83
2024/03/30 13:11:06;;;;;;;;;;;20.10;99.90;;;;;;5051954;28;20301;-83
2024/03/30 13:13:33;;;;;;;;;;;19.90;99.90;;;;;;5044441;28;19924;-82
2024/03/30 13:16:02;;;;;;;;;;;19.60;99.90;;;;;;5047691;28;19913;-82
2024/03/30 13:18:27;;;;;;;;;;;19.30;99.90;;;;;;5052145;28;20242;-81
2024/03/30 13:20:53;;;;;;;;;;;19.00;99.90;;;;;;5055901;28;19976;-82
2024/03/30 13:23:22;;;;;;;;;;;18.70;99.90;;;;;;5050665;28;19928;-81
2024/03/30 13:25:48;;;;;;;;;;;18.50;99.90;;;;;;5046823;28;19992;-82
2024/03/30 13:28:14;;;;;;;;;;;18.50;99.90;;;;;;5056358;28;19913;-82
2024/03/30 13:30:40;;;;;;;;;;;18.40;99.90;;;;;;5052799;28;19913;-81
2024/03/30 13:33:06;;;;;;;;;;;18.50;99.90;;;;;;5054845;28;19921;-80
2024/03/30 13:35:33;;;;;;;;;;;18.70;99.90;;;;;;5053114;28;19916;-82
2024/03/30 13:37:58;;;;;;;;;;;18.70;99.90;;;;;;5056750;28;19923;-82
2024/03/30 13:40:24;;;;;;;;;;;18.70;99.90;;;;;;5054060;28;19948;-81
2024/03/30 13:42:51;;;;;;;;;;;18.70;99.90;;;;;;5046891;28;19977;-82
2024/03/30 13:45:16;;;;;;;;;;;18.70;99.90;;;;;;5045417;28;19921;-81
2024/03/30 13:47:42;;;;;;;;;;;18.90;99.90;;;;;;5047178;28;19913;-84
2024/03/30 13:50:07;;;;;;;;;;;19.10;99.90;;;;;;5044589;28;19920;-81
2024/03/30 13:52:33;;;;;;;;;;;19.10;99.90;;;;;;5045424;28;19921;-81
2024/03/30 13:54:58;;;;;;;;;;;19.20;99.90;;;;;;5042585;28;19913;-82
2024/03/30 13:57:24;;;;;;;;;;;19.20;99.90;;;;;;5050269;28;19923;-81
2024/03/30 13:59:49;;;;;;;;;;;19.20;99.90;;;;;;5045624;28;19962;-81
2024/03/30 14:02:15;;;;;;;;;;;19.30;99.90;;;;;;5041495;28;19917;-81
2024/03/30 14:04:40;;;;;;;;;;;19.20;99.90;;;;;;5046326;28;19996;-82
2024/03/30 14:07:06;;;;;;;;;;;19.20;99.90;;;;;;5043369;28;19913;-82
2024/03/30 14:09:32;;;;;;;;;;;19.10;99.90;;;;;;5052032;28;20338;-81
2024/03/30 14:11:57;;;;;;;;;;;19.10;99.90;;;;;;5050697;28;19920;-79
2024/03/30 14:14:23;;;;;;;;;;;18.90;99.90;;;;;;5049615;28;19917;-81
2024/03/30 14:16:48;;;;;;;;;;;18.60;99.90;;;;;;5041248;28;20306;-82
2024/03/30 14:19:14;;;;;;;;;;;18.30;99.90;;;;;;5045103;28;19920;-82
2024/03/30 14:21:39;;;;;;;;;;;18.00;99.90;;;;;;5043223;28;19978;-83